sensor_id;sensor_type;location;lat;lon;timestamp;pressure;altitude;pressure_sealevel;temperature;humidity
25584;BME280;13463;51.526;9.928;2024-03-23T00:55:46;99122.38;;;9.18;100.00
25584;BME280;13463;51.526;9.928;2024-03-23T00:58:11;99124.56;;;8.98;100.00
25584;BME280;13463;51.526;9.928;2024-03-23T01:00:37;99123.69;;;9.11;100.00
25584;BME280;13463;51.526;9.928;2024-03-23T01:03:02;99117.06;;;9.04;100.00
25584;BME280;13463;51.526;9.928;2024-03-23T01:05:28;99111.59;;;9.07;100.00
25584;BME280;13463;51.526;9.928;2024-03-23T01:07:53;99124.47;;;9.13;100.00
25584;BME280;13463;51.526;9.928;2024-03-23T01:10:19;99114.97;;;9.37;100.00
25584;BME280;13463;51.526;9.928;2024-03-23T01:12:44;99112.91;;;9.14;100.00
25584;BME280;13463;51.526;9.928;2024-03-23T01:15:10;99107.81;;;9.25;100.00
25584;BME280;13463;51.526;9.928;2024-03-23T01:17:35;99100.66;;;9.13;100.00
25584;BME280;13463;51.526;9.928;2024-03-23T01:20:01;99095.94;;;9.18;100.00
25584;BME280;13463;51.526;9.928;2024-03-23T01:22:28;99100.47;;;9.02;100.00
25584;BME280;13463;51.526;9.928;2024-03-23T01:24:53;99093.34;;;9.17;100.00
25584;BME280;13463;51.526;9.928;2024-03-23T01:27:19;99091.97;;;8.97;100.00
25584;BME280;13463;51.526;9.928;2024-03-23T01:29:44;99082.13;;;9.13;100.00
25584;BME280;13463;51.526;9.928;2024-03-23T01:32:10;99083.56;;;8.91;100.00
25584;BME280;13463;51.526;9.928;2024-03-23T01:34:35;99076.63;;;9.16;100.00
25584;BME280;13463;51.526;9.928;2024-03-23T01:37:01;99083.56;;;8.91;100.00
25584;BME280;13463;51.526;9.928;2024-03-23T01:39:26;99073.66;;;8.94;100.00
25584;BME280;13463;51.526;9.928;2024-03-23T01:41:55;99070.44;;;9.03;100.00
25584;BME280;13463;51.526;9.928;2024-03-23T01:44:20;99068.72;;;9.02;100.00
25584;BME280;13463;51.526;9.928;2024-03-23T01:46:46;99055.16;;;8.94;100.00
25584;BME280;13463;51.526;9.928;2024-03-23T01:49:12;99054.38;;;8.92;100.00
25584;BME280;13463;51.526;9.928;2024-03-23T01:51:38;99055.94;;;9.23;100.00
25584;BME280;13463;51.526;9.928;2024-03-23T01:54:04;99049.16;;;9.05;100.00
25584;BME280;13463;51.526;9.928;2024-03-23T01:56:31;99040.78;;;8.98;100.00
25584;BME280;13463;51.526;9.928;2024-03-23T01:58:58;99032.38;;;9.06;100.00
25584;BME280;13463;51.526;9.928;2024-03-23T02:01:24;99027.53;;;9.12;100.00
25584;BME280;13463;51.526;9.928;2024-03-23T02:03:50;99032.03;;;9.24;100.00
25584;BME280;13463;51.526;9.928;2024-03-23T02:06:15;99030.38;;;9.36;100.00
25584;BME280;13463;51.526;9.928;2024-03-23T02:08:40;99023.41;;;9.48;100.00
25584;BME280;13463;51.526;9.928;2024-03-23T02:11:06;99020.84;;;9.33;100.00
25584;BME280;13463;51.526;9.928;2024-03-23T02:13:31;99012.31;;;9.16;100.00
25584;BME280;13463;51.526;9.928;2024-03-23T02:15:57;99008.31;;;9.23;100.00
25584;BME280;13463;51.526;9.928;2024-03-23T02:18:23;99012.75;;;8.96;100.00
25584;BME280;13463;51.526;9.928;2024-03-23T02:20:48;99010.72;;;8.99;100.00
25584;BME280;13463;51.526;9.928;2024-03-23T02:23:14;99011.84;;;9.09;100.00
25584;BME280;13463;51.526;9.928;2024-03-23T02:25:40;99017.16;;;8.95;100.00
25584;BME280;13463;51.526;9.928;2024-03-23T02:28:05;99020.38;;;9.00;100.00
25584;BME280;13463;51.526;9.928;2024-03-23T02:30:31;99011.13;;;8.93;100.00
25584;BME280;13463;51.526;9.928;2024-03-23T02:32:56;99004.34;;;8.89;100.00
25584;BME280;13463;51.526;9.928;2024-03-23T02:35:22;99002.09;;;8.83;100.00
25584;BME280;13463;51.526;9.928;2024-03-23T02:37:47;98988.69;;;8.86;100.00
25584;BME280;13463;51.526;9.928;2024-03-23T02:40:16;98990.59;;;8.56;100.00
25584;BME280;13463;51.526;9.928;2024-03-23T02:42:42;98990.31;;;8.46;100.00
25584;BME280;13463;51.526;9.928;2024-03-23T02:45:08;98980.22;;;8.25;100.00
25584;BME280;13463;51.526;9.928;2024-03-23T02:47:33;98973.44;;;8.21;100.00
25584;BME280;13463;51.526;9.928;2024-03-23T02:49:58;98990.03;;;8.08;100.00
25584;BME280;13463;51.526;9.928;2024-03-23T02:52:24;98991.59;;;7.83;100.00
25584;BME280;13463;51.526;9.928;2024-03-23T02:54:49;98993.38;;;7.82;100.00
25584;BME280;13463;51.526;9.928;2024-03-23T02:57:15;98996.66;;;7.72;100.00
25584;BME280;13463;51.526;9.928;2024-03-23T02:59:41;98995.81;;;7.71;100.00
25584;BME280;13463;51.526;9.928;2024-03-23T03:02:06;98993.34;;;7.68;100.00
25584;BME280;13463;51.526;9.928;2024-03-23T03:04:32;98995.53;;;7.46;100.00
25584;BME280;13463;51.526;9.928;2024-03-23T03:06:57;98993.19;;;7.26;100.00
25584;BME280;13463;51.526;9.928;2024-03-23T03:09:23;98997.97;;;7.35;100.00
25584;BME280;13463;51.526;9.928;2024-03-23T03:11:49;98986.00;;;7.14;100.00
25584;BME280;13463;51.526;9.928;2024-03-23T03:14:14;98988.22;;;7.06;100.00
25584;BME280;13463;51.526;9.928;2024-03-23T03:16:40;98985.66;;;7.20;100.00
25584;BME280;13463;51.526;9.928;2024-03-23T03:19:05;98987.97;;;7.10;100.00
25584;BME280;13463;51.526;9.928;2024-03-23T03:21:31;98983.03;;;7.20;100.00
25584;BME280;13463;51.526;9.928;2024-03-23T03:23:57;98975.97;;;7.05;100.00
25584;BME280;13463;51.526;9.928;2024-03-23T03:26:23;98971.50;;;7.21;100.00
25584;BME280;13463;51.526;9.928;2024-03-23T03:28:49;98976.28;;;7.30;100.00
25584;BME280;13463;51.526;9.928;2024-03-23T03:31:15;98988.13;;;7.23;100.00
25584;BME280;13463;51.526;9.928;2024-03-23T03:33:41;98987.69;;;7.15;100.00
25584;BME280;13463;51.526;9.928;2024-03-23T03:36:07;98978.91;;;7.30;100.00
25584;BME280;13463;51.526;9.928;2024-03-23T03:38:33;98980.22;;;7.23;100.00
25584;BME280;13463;51.526;9.928;2024-03-23T03:41:01;98974.94;;;7.23;100.00
25584;BME280;13463;51.526;9.928;2024-03-23T03:43:27;98983.03;;;7.20;100.00
25584;BME280;13463;51.526;9.928;2024-03-23T03:45:56;98976.72;;;7.07;100.00
25584;BME280;13463;51.526;9.928;2024-03-23T03:48:22;98968.13;;;7.19;100.00
25584;BME280;13463;51.526;9.928;2024-03-23T03:50:48;98964.63;;;7.18;100.00
25584;BME280;13463;51.526;9.928;2024-03-23T03:53:14;98958.91;;;6.96;100.00
25584;BME280;13463;51.526;9.928;2024-03-23T03:55:39;98954.16;;;6.71;100.00
25584;BME280;13463;51.526;9.928;2024-03-23T03:58:05;98952.63;;;6.67;100.00
25584;BME280;13463;51.526;9.928;2024-03-23T04:00:30;98948.13;;;6.69;100.00
25584;BME280;13463;51.526;9.928;2024-03-23T04:02:56;98950.59;;;6.72;100.00
25584;BME280;13463;51.526;9.928;2024-03-23T04:05:22;98951.09;;;6.63;100.00
25584;BME280;13463;51.526;9.928;2024-03-23T04:07:47;98945.66;;;6.51;100.00
25584;BME280;13463;51.526;9.928;2024-03-23T04:10:13;98950.41;;;6.44;100.00
25584;BME280;13463;51.526;9.928;2024-03-23T04:12:39;98948.06;;;6.55;100.00
25584;BME280;13463;51.526;9.928;2024-03-23T04:15:05;98946.00;;;6.45;100.00
25584;BME280;13463;51.526;9.928;2024-03-23T04:17:31;98944.06;;;6.48;100.00
25584;BME280;13463;51.526;9.928;2024-03-23T04:20:00;98946.50;;;6.51;100.00
25584;BME280;13463;51.526;9.928;2024-03-23T04:22:26;98951.44;;;6.26;100.00
25584;BME280;13463;51.526;9.928;2024-03-23T04:24:58;98945.66;;;6.35;100.00
25584;BME280;13463;51.526;9.928;2024-03-23T04:27:25;98954.84;;;6.59;100.00
25584;BME280;13463;51.526;9.928;2024-03-23T04:29:51;98955.66;;;6.44;100.00
25584;BME280;13463;51.526;9.928;2024-03-23T04:32:17;98948.88;;;6.40;100.00
25584;BME280;13463;51.526;9.928;2024-03-23T04:34:43;98940.88;;;6.42;100.00
25584;BME280;13463;51.526;9.928;2024-03-23T04:37:08;98937.19;;;6.46;100.00
25584;BME280;13463;51.526;9.928;2024-03-23T04:39:34;98944.72;;;6.36;100.00
25584;BME280;13463;51.526;9.928;2024-03-23T04:42:00;98934.19;;;6.36;100.00
25584;BME280;13463;51.526;9.928;2024-03-23T04:44:26;98939.88;;;6.29;100.00
25584;BME280;13463;51.526;9.928;2024-03-23T04:46:51;98938.72;;;6.17;100.00
25584;BME280;13463;51.526;9.928;2024-03-23T04:49:17;98937.81;;;6.18;100.00
25584;BME280;13463;51.526;9.928;2024-03-23T04:51:42;98933.22;;;6.06;100.00
25584;BME280;13463;51.526;9.928;2024-03-23T04:54:11;98939.06;;;6.11;100.00
25584;BME280;13463;51.526;9.928;2024-03-23T04:56:37;98927.69;;;5.95;100.00
25584;BME280;13463;51.526;9.928;2024-03-23T04:59:03;98925.34;;;5.89;100.00
25584;BME280;13463;51.526;9.928;2024-03-23T05:01:33;98930.72;;;5.70;100.00
25584;BME280;13463;51.526;9.928;2024-03-23T05:03:58;98936.19;;;5.83;100.00
25584;BME280;13463;51.526;9.928;2024-03-23T05:06:24;98937.09;;;5.82;100.00
25584;BME280;13463;51.526;9.928;2024-03-23T05:08:50;98927.53;;;5.81;100.00
25584;BME280;13463;51.526;9.928;2024-03-23T05:11:16;98942.47;;;5.80;100.00
25584;BME280;13463;51.526;9.928;2024-03-23T05:13:42;98943.25;;;5.65;100.00
25584;BME280;13463;51.526;9.928;2024-03-23T05:16:07;98929.56;;;5.76;100.00
25584;BME280;13463;51.526;9.928;2024-03-23T05:18:34;98935.59;;;5.61;100.00
25584;BME280;13463;51.526;9.928;2024-03-23T05:20:59;98927.31;;;5.68;100.00
25584;BME280;13463;51.526;9.928;2024-03-23T05:23:25;98926.59;;;5.65;100.00
25584;BME280;13463;51.526;9.928;2024-03-23T05:25:51;98926.97;;;5.91;100.00
25584;BME280;13463;51.526;9.928;2024-03-23T05:28:17;98935.22;;;5.68;100.00
25584;BME280;13463;51.526;9.928;2024-03-23T05:30:42;98942.53;;;5.79;100.00
25584;BME280;13463;51.526;9.928;2024-03-23T05:33:08;98950.44;;;5.62;100.00
25584;BME280;13463;51.526;9.928;2024-03-23T05:35:33;98949.47;;;5.47;100.00
25584;BME280;13463;51.526;9.928;2024-03-23T05:37:59;98948.50;;;5.48;100.00
25584;BME280;13463;51.526;9.928;2024-03-23T05:40:28;98955.72;;;5.45;100.00
25584;BME280;13463;51.526;9.928;2024-03-23T05:42:53;98955.88;;;5.42;100.00
25584;BME280;13463;51.526;9.928;2024-03-23T05:45:19;98956.16;;;5.35;100.00
25584;BME280;13463;51.526;9.928;2024-03-23T05:47:45;98956.63;;;5.26;100.00
25584;BME280;13463;51.526;9.928;2024-03-23T05:50:10;98955.09;;;5.39;100.00
25584;BME280;13463;51.526;9.928;2024-03-23T05:52:40;98953.09;;;5.27;100.00
25584;BME280;13463;51.526;9.928;2024-03-23T05:55:09;98950.59;;;5.24;100.00
25584;BME280;13463;51.526;9.928;2024-03-23T05:57:34;98949.09;;;5.37;100.00
25584;BME280;13463;51.526;9.928;2024-03-23T06:00:00;98952.09;;;5.30;100.00
25584;BME280;13463;51.526;9.928;2024-03-23T06:02:25;98958.94;;;5.50;100.00
25584;BME280;13463;51.526;9.928;2024-03-23T06:04:51;98964.91;;;5.36;100.00
25584;BME280;13463;51.526;9.928;2024-03-23T06:07:16;98969.03;;;5.59;100.00
25584;BME280;13463;51.526;9.928;2024-03-23T06:09:42;98969.06;;;5.40;100.00
25584;BME280;13463;51.526;9.928;2024-03-23T06:12:08;98966.53;;;5.38;100.00
25584;BME280;13463;51.526;9.928;2024-03-23T06:14:34;98966.78;;;5.34;100.00
25584;BME280;13463;51.526;9.928;2024-03-23T06:17:00;98961.28;;;5.38;100.00
25584;BME280;13463;51.526;9.928;2024-03-23T06:19:26;98964.38;;;5.64;100.00
25584;BME280;13463;51.526;9.928;2024-03-23T06:21:53;98970.03;;;5.56;100.00
25584;BME280;13463;51.526;9.928;2024-03-23T06:24:19;98972.41;;;5.61;100.00
25584;BME280;13463;51.526;9.928;2024-03-23T06:26:44;98981.22;;;5.60;100.00
25584;BME280;13463;51.526;9.928;2024-03-23T06:29:09;98980.59;;;5.55;100.00
25584;BME280;13463;51.526;9.928;2024-03-23T06:31:35;98983.06;;;5.40;100.00
25584;BME280;13463;51.526;9.928;2024-03-23T06:34:00;98987.28;;;5.45;100.00
25584;BME280;13463;51.526;9.928;2024-03-23T06:36:26;98997.00;;;5.25;100.00
25584;BME280;13463;51.526;9.928;2024-03-23T06:38:52;98986.03;;;5.34;100.00
25584;BME280;13463;51.526;9.928;2024-03-23T06:41:18;98994.16;;;5.30;100.00
25584;BME280;13463;51.526;9.928;2024-03-23T06:43:44;98998.22;;;5.35;100.00
25584;BME280;13463;51.526;9.928;2024-03-23T06:46:10;99000.41;;;5.27;100.00
25584;BME280;13463;51.526;9.928;2024-03-23T06:48:35;99009.28;;;5.25;100.00
25584;BME280;13463;51.526;9.928;2024-03-23T06:51:00;99014.47;;;5.26;100.00
25584;BME280;13463;51.526;9.928;2024-03-23T06:53:26;99013.59;;;5.26;100.00
25584;BME280;13463;51.526;9.928;2024-03-23T06:55:52;99014.47;;;5.26;100.00
25584;BME280;13463;51.526;9.928;2024-03-23T06:58:22;99015.06;;;5.14;100.00
25584;BME280;13463;51.526;9.928;2024-03-23T07:00:48;99020.94;;;5.19;100.00
25584;BME280;13463;51.526;9.928;2024-03-23T07:03:13;99028.22;;;5.31;100.00
25584;BME280;13463;51.526;9.928;2024-03-23T07:05:39;99029.16;;;5.13;100.00
25584;BME280;13463;51.526;9.928;2024-03-23T07:08:04;99011.06;;;5.24;100.00
25584;BME280;13463;51.526;9.928;2024-03-23T07:10:30;99026.31;;;4.99;100.00
25584;BME280;13463;51.526;9.928;2024-03-23T07:12:55;99021.63;;;4.87;100.00
25584;BME280;13463;51.526;9.928;2024-03-23T07:15:21;99022.22;;;4.94;100.00
25584;BME280;13463;51.526;9.928;2024-03-23T07:17:49;99031.41;;;5.02;100.00
25584;BME280;13463;51.526;9.928;2024-03-23T07:20:15;99021.94;;;4.81;100.00
25584;BME280;13463;51.526;9.928;2024-03-23T07:22:41;99009.44;;;4.86;100.00
25584;BME280;13463;51.526;9.928;2024-03-23T07:25:06;99002.19;;;4.91;100.00
25584;BME280;13463;51.526;9.928;2024-03-23T07:27:32;98998.72;;;4.91;100.00
25584;BME280;13463;51.526;9.928;2024-03-23T07:29:57;98992.63;;;5.07;100.00
25584;BME280;13463;51.526;9.928;2024-03-23T07:32:23;99006.91;;;5.37;100.00
25584;BME280;13463;51.526;9.928;2024-03-23T07:34:48;99020.97;;;5.36;100.00
25584;BME280;13463;51.526;9.928;2024-03-23T07:37:14;99032.22;;;5.21;100.00
25584;BME280;13463;51.526;9.928;2024-03-23T07:39:41;99025.28;;;5.20;100.00
25584;BME280;13463;51.526;9.928;2024-03-23T07:42:06;99032.41;;;5.35;100.00
25584;BME280;13463;51.526;9.928;2024-03-23T07:44:32;99031.63;;;5.33;100.00
25584;BME280;13463;51.526;9.928;2024-03-23T07:46:58;99033.50;;;5.31;100.00
25584;BME280;13463;51.526;9.928;2024-03-23T07:49:24;99036.56;;;5.22;100.00
25584;BME280;13463;51.526;9.928;2024-03-23T07:51:49;99041.69;;;5.43;100.00
25584;BME280;13463;51.526;9.928;2024-03-23T07:54:15;99051.78;;;5.52;100.00
25584;BME280;13463;51.526;9.928;2024-03-23T07:56:40;99064.31;;;5.47;100.00
25584;BME280;13463;51.526;9.928;2024-03-23T07:59:07;99059.97;;;5.63;100.00
25584;BME280;13463;51.526;9.928;2024-03-23T08:01:32;99066.78;;;5.67;100.00
25584;BME280;13463;51.526;9.928;2024-03-23T08:03:59;99062.13;;;5.72;100.00
25584;BME280;13463;51.526;9.928;2024-03-23T08:06:25;99069.84;;;5.93;100.00
25584;BME280;13463;51.526;9.928;2024-03-23T08:08:51;99068.53;;;6.02;100.00
25584;BME280;13463;51.526;9.928;2024-03-23T08:11:31;99072.69;;;5.89;100.00
25584;BME280;13463;51.526;9.928;2024-03-23T08:13:57;99071.16;;;6.02;100.00
25584;BME280;13463;51.526;9.928;2024-03-23T08:16:23;99066.03;;;5.82;100.00
25584;BME280;13463;51.526;9.928;2024-03-23T08:18:52;99081.31;;;5.74;100.00
25584;BME280;13463;51.526;9.928;2024-03-23T08:21:17;99069.22;;;5.71;100.00
25584;BME280;13463;51.526;9.928;2024-03-23T08:23:43;99068.63;;;5.65;100.00
25584;BME280;13463;51.526;9.928;2024-03-23T08:26:13;99070.81;;;5.74;100.00
25584;BME280;13463;51.526;9.928;2024-03-23T08:28:39;99065.78;;;5.69;100.00
25584;BME280;13463;51.526;9.928;2024-03-23T08:31:05;99064.94;;;6.03;100.00
25584;BME280;13463;51.526;9.928;2024-03-23T08:33:31;99062.09;;;6.07;100.00
25584;BME280;13463;51.526;9.928;2024-03-23T08:35:57;99069.22;;;6.05;100.00
25584;BME280;13463;51.526;9.928;2024-03-23T08:38:23;99061.53;;;6.18;100.00
25584;BME280;13463;51.526;9.928;2024-03-23T08:40:56;99060.25;;;6.42;100.00
25584;BME280;13463;51.526;9.928;2024-03-23T08:43:21;99064.59;;;6.43;100.00
25584;BME280;13463;51.526;9.928;2024-03-23T08:45:47;99061.41;;;6.69;100.00
25584;BME280;13463;51.526;9.928;2024-03-23T08:48:12;99077.84;;;6.75;100.00
25584;BME280;13463;51.526;9.928;2024-03-23T08:50:38;99092.88;;;6.72;100.00
25584;BME280;13463;51.526;9.928;2024-03-23T08:53:03;99100.34;;;6.64;100.00
25584;BME280;13463;51.526;9.928;2024-03-23T08:55:29;99099.59;;;6.45;100.00
25584;BME280;13463;51.526;9.928;2024-03-23T08:57:55;99097.25;;;6.56;100.00
25584;BME280;13463;51.526;9.928;2024-03-23T09:00:22;99097.97;;;6.76;100.00
25584;BME280;13463;51.526;9.928;2024-03-23T09:02:47;99101.56;;;6.90;100.00
25584;BME280;13463;51.526;9.928;2024-03-23T09:05:14;99100.03;;;6.86;100.00
25584;BME280;13463;51.526;9.928;2024-03-23T09:07:39;99093.91;;;6.86;100.00
25584;BME280;13463;51.526;9.928;2024-03-23T09:10:05;99103.94;;;6.95;100.00
25584;BME280;13463;51.526;9.928;2024-03-23T09:12:30;99105.50;;;7.14;100.00
25584;BME280;13463;51.526;9.928;2024-03-23T09:14:57;99094.28;;;7.11;100.00
25584;BME280;13463;51.526;9.928;2024-03-23T09:17:22;99098.50;;;8.20;100.00
25584;BME280;13463;51.526;9.928;2024-03-23T09:19:48;99103.50;;;8.54;100.00
25584;BME280;13463;51.526;9.928;2024-03-23T09:22:13;99106.13;;;8.40;100.00
25584;BME280;13463;51.526;9.928;2024-03-23T09:24:40;99108.00;;;7.78;100.00
25584;BME280;13463;51.526;9.928;2024-03-23T09:27:05;99117.72;;;7.78;100.00
25584;BME280;13463;51.526;9.928;2024-03-23T09:29:31;99109.91;;;7.45;100.00
25584;BME280;13463;51.526;9.928;2024-03-23T09:31:56;99109.91;;;7.61;100.00
25584;BME280;13463;51.526;9.928;2024-03-23T09:34:22;99118.59;;;7.47;100.00
25584;BME280;13463;51.526;9.928;2024-03-23T09:36:50;99118.84;;;7.43;100.00
25584;BME280;13463;51.526;9.928;2024-03-23T09:39:17;99115.03;;;7.48;100.00
25584;BME280;13463;51.526;9.928;2024-03-23T09:41:42;99102.91;;;7.60;100.00
25584;BME280;13463;51.526;9.928;2024-03-23T09:44:08;99106.94;;;7.96;100.00
25584;BME280;13463;51.526;9.928;2024-03-23T09:46:33;99102.53;;;8.27;100.00
25584;BME280;13463;51.526;9.928;2024-03-23T09:49:01;99100.09;;;8.38;100.00
25584;BME280;13463;51.526;9.928;2024-03-23T09:51:30;99095.78;;;8.21;100.00
25584;BME280;13463;51.526;9.928;2024-03-23T09:53:56;99098.19;;;8.10;100.00
25584;BME280;13463;51.526;9.928;2024-03-23T09:56:21;99100.03;;;8.24;100.00
25584;BME280;13463;51.526;9.928;2024-03-23T09:58:47;99104.44;;;8.09;100.00
25584;BME280;13463;51.526;9.928;2024-03-23T10:01:12;99099.63;;;8.16;100.00
25584;BME280;13463;51.526;9.928;2024-03-23T10:03:44;99096.94;;;8.01;100.00
25584;BME280;13463;51.526;9.928;2024-03-23T10:06:10;99090.38;;;8.08;100.00
25584;BME280;13463;51.526;9.928;2024-03-23T10:08:35;99096.75;;;7.90;100.00
25584;BME280;13463;51.526;9.928;2024-03-23T10:11:14;99101.88;;;7.62;100.00
25584;BME280;13463;51.526;9.928;2024-03-23T10:13:41;99106.00;;;7.36;100.00
25584;BME280;13463;51.526;9.928;2024-03-23T10:16:08;99101.19;;;7.74;100.00
25584;BME280;13463;51.526;9.928;2024-03-23T10:18:36;99101.94;;;7.76;100.00
25584;BME280;13463;51.526;9.928;2024-03-23T10:23:38;99083.09;;;8.42;100.00
25584;BME280;13463;51.526;9.928;2024-03-23T10:26:15;99067.53;;;8.80;100.00
25584;BME280;13463;51.526;9.928;2024-03-23T10:31:15;99079.69;;;8.40;100.00
25584;BME280;13463;51.526;9.928;2024-03-23T10:33:48;99067.34;;;8.40;100.00
25584;BME280;13463;51.526;9.928;2024-03-23T10:36:16;99082.63;;;8.05;100.00
25584;BME280;13463;51.526;9.928;2024-03-23T10:38:46;99073.34;;;7.98;100.00
25584;BME280;13463;51.526;9.928;2024-03-23T10:41:12;99081.38;;;7.97;100.00
25584;BME280;13463;51.526;9.928;2024-03-23T10:43:38;99082.63;;;8.20;100.00
25584;BME280;13463;51.526;9.928;2024-03-23T10:46:05;99066.13;;;8.60;100.00
25584;BME280;13463;51.526;9.928;2024-03-23T10:48:32;99062.53;;;8.61;100.00
25584;BME280;13463;51.526;9.928;2024-03-23T10:50:57;99059.63;;;8.80;100.00
25584;BME280;13463;51.526;9.928;2024-03-23T10:53:25;99047.47;;;8.90;97.57
25584;BME280;13463;51.526;9.928;2024-03-23T10:55:51;99052.06;;;9.14;93.88
25584;BME280;13463;51.526;9.928;2024-03-23T10:58:17;99042.59;;;9.24;91.46
25584;BME280;13463;51.526;9.928;2024-03-23T11:00:44;99038.00;;;9.40;90.80
25584;BME280;13463;51.526;9.928;2024-03-23T11:05:54;99027.97;;;9.85;90.65
25584;BME280;13463;51.526;9.928;2024-03-23T11:08:35;99022.69;;;9.85;88.86
25584;BME280;13463;51.526;9.928;2024-03-23T11:11:20;99031.56;;;9.84;81.56
25584;BME280;13463;51.526;9.928;2024-03-23T11:13:51;99005.94;;;9.84;76.79
25584;BME280;13463;51.526;9.928;2024-03-23T11:16:26;99009.97;;;9.90;79.29
25584;BME280;13463;51.526;9.928;2024-03-23T11:21:53;99022.59;;;9.99;75.49
25584;BME280;13463;51.526;9.928;2024-03-23T11:24:19;99050.59;;;9.76;75.84
25584;BME280;13463;51.526;9.928;2024-03-23T11:26:45;99084.63;;;8.74;92.04
25584;BME280;13463;51.526;9.928;2024-03-23T11:29:11;99106.16;;;7.02;100.00
25584;BME280;13463;51.526;9.928;2024-03-23T11:31:49;99102.56;;;6.22;100.00
25584;BME280;13463;51.526;9.928;2024-03-23T11:34:15;99100.03;;;6.21;100.00
25584;BME280;13463;51.526;9.928;2024-03-23T11:36:41;99098.88;;;6.26;100.00
25584;BME280;13463;51.526;9.928;2024-03-23T11:39:14;99104.66;;;6.16;100.00
25584;BME280;13463;51.526;9.928;2024-03-23T11:41:56;99113.28;;;6.02;100.00
25584;BME280;13463;51.526;9.928;2024-03-23T11:44:22;99116.38;;;5.93;100.00
25584;BME280;13463;51.526;9.928;2024-03-23T11:46:49;99111.13;;;5.93;100.00
25584;BME280;13463;51.526;9.928;2024-03-23T11:49:21;99121.94;;;6.04;100.00
25584;BME280;13463;51.526;9.928;2024-03-23T11:51:50;99106.31;;;6.51;100.00
25584;BME280;13463;51.526;9.928;2024-03-23T11:54:15;99109.09;;;6.65;100.00
25584;BME280;13463;51.526;9.928;2024-03-23T11:56:53;99111.38;;;6.55;100.00
25584;BME280;13463;51.526;9.928;2024-03-23T11:59:38;99104.84;;;6.78;100.00
25584;BME280;13463;51.526;9.928;2024-03-23T12:02:05;99092.56;;;7.41;100.00
25584;BME280;13463;51.526;9.928;2024-03-23T12:04:31;99088.25;;;7.40;100.00
25584;BME280;13463;51.526;9.928;2024-03-23T12:09:38;99073.63;;;8.24;100.00
25584;BME280;13463;51.526;9.928;2024-03-23T12:12:14;99067.06;;;8.45;100.00
25584;BME280;13463;51.526;9.928;2024-03-23T12:14:43;99066.19;;;8.44;99.32
25584;BME280;13463;51.526;9.928;2024-03-23T12:17:12;99061.00;;;8.29;97.67
25584;BME280;13463;51.526;9.928;2024-03-23T12:19:38;99065.56;;;8.41;93.62
25584;BME280;13463;51.526;9.928;2024-03-23T12:22:04;99083.66;;;8.33;96.03
25584;BME280;13463;51.526;9.928;2024-03-23T12:24:30;99082.34;;;8.54;97.42
25584;BME280;13463;51.526;9.928;2024-03-23T12:26:59;99093.69;;;8.98;94.06
25584;BME280;13463;51.526;9.928;2024-03-23T12:29:26;99087.44;;;8.85;96.27
25584;BME280;13463;51.526;9.928;2024-03-23T12:31:51;99105.03;;;8.58;96.65
25584;BME280;13463;51.526;9.928;2024-03-23T12:34:16;99121.28;;;8.06;100.00
25584;BME280;13463;51.526;9.928;2024-03-23T12:36:42;99129.16;;;7.47;100.00
25584;BME280;13463;51.526;9.928;2024-03-23T12:39:08;99137.50;;;6.76;100.00
25584;BME280;13463;51.526;9.928;2024-03-23T12:41:33;99145.00;;;6.50;100.00
25584;BME280;13463;51.526;9.928;2024-03-23T12:43:59;99146.69;;;6.51;100.00
25584;BME280;13463;51.526;9.928;2024-03-23T12:46:24;99139.88;;;6.47;100.00
25584;BME280;13463;51.526;9.928;2024-03-23T12:48:50;99151.81;;;6.20;100.00
25584;BME280;13463;51.526;9.928;2024-03-23T12:51:15;99133.94;;;5.74;100.00
25584;BME280;13463;51.526;9.928;2024-03-23T12:53:41;99127.03;;;5.90;100.00
25584;BME280;13463;51.526;9.928;2024-03-23T12:56:06;99123.03;;;6.00;100.00
25584;BME280;13463;51.526;9.928;2024-03-23T12:58:32;99108.16;;;6.16;100.00
25584;BME280;13463;51.526;9.928;2024-03-23T13:00:58;99111.53;;;6.52;100.00
25584;BME280;13463;51.526;9.928;2024-03-23T13:03:23;99092.03;;;6.88;100.00
25584;BME280;13463;51.526;9.928;2024-03-23T13:05:52;99088.13;;;6.95;100.00
25584;BME280;13463;51.526;9.928;2024-03-23T13:08:17;99084.88;;;6.90;100.00
25584;BME280;13463;51.526;9.928;2024-03-23T13:10:43;99088.66;;;7.01;100.00
25584;BME280;13463;51.526;9.928;2024-03-23T13:13:10;99079.28;;;7.11;100.00
25584;BME280;13463;51.526;9.928;2024-03-23T13:15:35;99081.50;;;7.19;100.00
25584;BME280;13463;51.526;9.928;2024-03-23T13:18:01;99081.88;;;7.13;100.00
25584;BME280;13463;51.526;9.928;2024-03-23T13:20:26;99081.03;;;7.73;100.00
25584;BME280;13463;51.526;9.928;2024-03-23T13:22:52;99079.03;;;8.06;100.00
25584;BME280;13463;51.526;9.928;2024-03-23T13:25:17;99072.72;;;8.39;100.00
25584;BME280;13463;51.526;9.928;2024-03-23T13:27:44;99062.34;;;8.64;100.00
25584;BME280;13463;51.526;9.928;2024-03-23T13:30:10;99063.06;;;8.80;100.00
25584;BME280;13463;51.526;9.928;2024-03-23T13:32:35;99053.94;;;8.71;100.00
25584;BME280;13463;51.526;9.928;2024-03-23T13:35:01;99061.41;;;8.51;100.00
25584;BME280;13463;51.526;9.928;2024-03-23T13:37:26;99048.53;;;8.87;100.00
25584;BME280;13463;51.526;9.928;2024-03-23T13:39:52;99058.16;;;9.02;100.00
25584;BME280;13463;51.526;9.928;2024-03-23T13:42:17;99045.09;;;9.13;98.81
25584;BME280;13463;51.526;9.928;2024-03-23T13:44:43;99038.69;;;9.03;98.16
25584;BME280;13463;51.526;9.928;2024-03-23T13:47:08;99028.19;;;9.16;100.00
25584;BME280;13463;51.526;9.928;2024-03-23T13:49:34;99011.66;;;9.12;100.00
25584;BME280;13463;51.526;9.928;2024-03-23T13:51:59;99010.50;;;9.16;100.00
25584;BME280;13463;51.526;9.928;2024-03-23T13:54:25;99018.97;;;8.95;100.00
25584;BME280;13463;51.526;9.928;2024-03-23T13:56:52;99032.47;;;8.90;100.00
25584;BME280;13463;51.526;9.928;2024-03-23T13:59:18;99030.88;;;8.88;98.91
25584;BME280;13463;51.526;9.928;2024-03-23T14:01:44;99102.94;;;8.63;96.76
25584;BME280;13463;51.526;9.928;2024-03-23T14:04:11;99128.81;;;7.22;100.00